Time;durP1;ratioP1;P1;durP2;ratioP2;P2;SDS_P1;SDS_P2;PMS_P1;PMS_P2;Temp;Humidity;BMP_temperature;BMP_pressure;BME280_temperature;BME280_humidity;BME280_pressure;Samples;Min_cycle;Max_cycle;Signal;HPM_P1;HPM_P2
2022/05/17 00:01:24;;;;;;;5.03;1.40;;;;;;;13.51;80.66;100887.02;1640559;86;20928;-90
2022/05/17 00:03:50;;;;;;;3.92;1.30;;;;;;;13.49;81.17;100881.59;1659625;86;21071;-90
2022/05/17 00:06:16;;;;;;;6.33;1.47;;;;;;;13.48;83.33;100885.40;1659923;86;20877;-90
2022/05/17 00:08:42;;;;;;;3.75;1.60;;;;;;;13.46;80.40;100889.72;1659701;86;21083;-90
2022/05/17 00:11:11;;;;;;;2.90;1.02;;;;;;;13.45;83.27;100884.05;1640955;86;21114;-88
2022/05/17 00:13:37;;;;;;;1.92;1.10;;;;;;;13.44;82.73;100887.81;1659562;86;21032;-88
2022/05/17 00:16:04;;;;;;;6.33;1.45;;;;;;;13.40;86.44;100891.61;1659782;86;20992;-89
2022/05/17 00:18:33;;;;;;;5.33;1.40;;;;;;;13.38;85.28;100887.55;1660001;86;21015;-88
2022/05/17 00:21:00;;;;;;;4.90;1.40;;;;;;;13.37;86.54;100885.39;1640862;86;21328;-89
2022/05/17 00:23:26;;;;;;;4.12;1.32;;;;;;;13.34;86.98;100887.83;1659896;86;21084;-89
2022/05/17 00:25:52;;;;;;;3.75;1.30;;;;;;;13.29;90.27;100887.82;1659928;86;21504;-89
2022/05/17 00:28:21;;;;;;;3.98;1.50;;;;;;;13.25;90.05;100885.37;1659843;86;20928;-89
2022/05/17 00:30:49;;;;;;;4.35;1.50;;;;;;;13.18;88.54;100882.39;1659471;86;21523;-89
2022/05/17 00:33:16;;;;;;;7.58;1.82;;;;;;;13.15;86.98;100891.05;1661193;86;21034;-89
2022/05/17 00:35:45;;;;;;;2.22;1.40;;;;;;;13.13;87.52;100886.44;1667134;86;39161;-89
2022/05/17 00:38:12;;;;;;;3.90;1.35;;;;;;;13.10;87.17;100892.39;1667233;86;21138;-89
2022/05/17 00:40:40;;;;;;;6.03;1.47;;;;;;;13.08;86.13;100889.13;1667491;86;21532;-88
2022/05/17 00:43:08;;;;;;;6.95;1.60;;;;;;;13.07;84.75;100899.69;1667164;86;21059;-89
2022/05/17 00:45:38;;;;;;;8.18;1.50;;;;;;;13.06;83.02;100896.73;1667639;86;21432;-88
2022/05/17 00:48:05;;;;;;;3.83;1.30;;;;;;;13.05;80.12;100895.63;1664120;86;21067;-89
2022/05/17 00:50:42;;;;;;;4.00;1.25;;;;;;;13.05;78.29;100893.73;1667545;86;21004;-91
2022/05/17 00:53:22;;;;;;;5.15;1.02;;;;;;;13.03;77.57;100893.20;1667439;86;21012;-90
2022/05/17 00:55:53;;;;;;;2.25;0.93;;;;;;;13.05;76.62;100901.03;1667469;86;21058;-89
2022/05/17 00:58:32;;;;;;;6.33;1.30;;;;;;;13.06;74.39;100896.73;1607843;89;21073;-89
2022/05/17 01:01:07;;;;;;;4.97;1.10;;;;;;;13.06;73.34;100898.59;1608055;89;21985;-89
2022/05/17 01:04:11;;;;;;;4.17;0.60;;;;;;;13.04;72.41;100898.88;1610756;89;21547;-88
2022/05/17 01:06:45;;;;;;;2.00;0.90;;;;;;;13.03;71.37;100895.91;1611092;89;21054;-90
2022/05/17 01:09:12;;;;;;;4.50;0.82;;;;;;;13.02;71.74;100888.86;1531936;93;21115;-88
2022/05/17 01:11:39;;;;;;;3.35;1.00;;;;;;;13.00;72.87;100891.55;1531867;92;21181;-89
2022/05/17 01:16:50;;;;;;;1.87;0.62;;;;;;;12.95;77.78;100889.67;1531741;93;21100;-87
2022/05/17 01:19:16;;;;;;;5.55;0.90;;;;;;;12.88;80.20;100890.45;1532217;93;21155;-88
2022/05/17 01:21:43;;;;;;;5.40;0.98;;;;;;;12.85;78.61;100889.13;1532237;93;21111;-89
2022/05/17 01:24:10;;;;;;;6.67;0.80;;;;;;;12.81;77.35;100892.07;1532216;93;21125;-89
2022/05/17 01:29:11;;;;;;;4.28;0.80;;;;;;;12.77;74.03;100895.05;1491272;96;21097;-89
2022/05/17 01:31:38;;;;;;;3.42;0.90;;;;;;;12.77;74.55;100892.34;1446042;99;21072;-88
2022/05/17 01:36:40;;;;;;;1.47;0.70;;;;;;;12.71;75.36;100891.52;1445136;98;21532;-88
2022/05/17 01:39:07;;;;;;;2.45;1.02;;;;;;;12.67;75.02;100891.75;1445078;98;21223;-88
2022/05/17 01:41:33;;;;;;;3.40;0.90;;;;;;;12.66;77.35;100890.69;1445213;98;21180;-88
2022/05/17 01:43:59;;;;;;;2.00;0.82;;;;;;;12.61;76.96;100885.26;1445291;98;21066;-89
2022/05/17 01:46:26;;;;;;;5.60;1.00;;;;;;;12.61;75.47;100894.17;1445146;98;21604;-89
2022/05/17 01:48:52;;;;;;;1.67;0.80;;;;;;;12.57;74.87;100894.98;1445311;98;21040;-89
2022/05/17 01:51:20;;;;;;;5.90;1.00;;;;;;;12.55;74.59;100898.48;1445213;98;21131;-90
2022/05/17 01:53:46;;;;;;;2.87;0.60;;;;;;;12.55;75.06;100893.89;1445098;98;21088;-89
2022/05/17 01:56:14;;;;;;;4.40;0.95;;;;;;;12.56;75.46;100895.53;1443830;99;21116;-88
2022/05/17 01:58:40;;;;;;;8.33;0.82;;;;;;;12.54;76.30;100897.67;1443713;99;21097;-89
2022/05/17 02:01:09;;;;;;;8.45;0.88;;;;;;;12.51;76.26;100896.86;1443719;99;21608;-89
2022/05/17 02:03:35;;;;;;;2.60;1.05;;;;;;;12.51;77.76;100899.56;1443705;99;21392;-89
2022/05/17 02:06:02;;;;;;;4.87;0.93;;;;;;;12.48;76.58;100894.14;1468874;95;21591;-88
2022/05/17 02:08:29;;;;;;;4.67;0.78;;;;;;;12.48;80.42;100894.69;1496350;95;21174;-88
2022/05/17 02:10:56;;;;;;;3.22;0.82;;;;;;;12.45;79.99;100898.73;1496400;95;21127;-89
2022/05/17 02:13:22;;;;;;;6.05;1.40;;;;;;;12.45;81.44;100906.03;1496421;95;21122;-89
2022/05/17 02:15:48;;;;;;;4.37;0.95;;;;;;;12.44;80.48;100904.38;1496480;95;21135;-88
2022/05/17 02:18:14;;;;;;;6.80;0.90;;;;;;;12.43;81.11;100911.69;1496369;95;21770;-90
2022/05/17 02:20:40;;;;;;;6.58;0.85;;;;;;;12.44;79.56;100912.49;1496592;95;21139;-90
2022/05/17 02:23:07;;;;;;;4.60;0.85;;;;;;;12.44;80.44;100905.73;1496500;95;21122;-89
2022/05/17 02:25:35;;;;;;;5.15;1.05;;;;;;;12.48;79.21;100904.15;1502468;94;21612;-89
2022/05/17 02:28:01;;;;;;;2.35;0.75;;;;;;;12.50;80.14;100902.81;1519206;93;22005;-88
2022/05/17 02:30:27;;;;;;;4.03;0.98;;;;;;;12.54;80.57;100911.20;1519174;93;21088;-88
2022/05/17 02:32:53;;;;;;;6.47;0.80;;;;;;;12.53;81.65;100906.04;1521491;93;21045;-89
2022/05/17 02:35:19;;;;;;;2.33;0.80;;;;;;;12.53;82.57;100906.88;1620578;86;20923;-88
2022/05/17 02:37:45;;;;;;;4.87;0.70;;;;;;;12.53;82.47;100910.94;1669339;86;20924;-88
2022/05/17 02:40:12;;;;;;;2.20;0.82;;;;;;;12.53;83.54;100910.94;1669313;85;21982;-88
2022/05/17 02:42:38;;;;;;;2.10;0.70;;;;;;;12.55;83.98;100912.00;1669327;86;21040;-88
2022/05/17 02:45:06;;;;;;;2.12;0.70;;;;;;;12.56;84.89;100913.11;1669251;85;21693;-88
2022/05/17 02:47:33;;;;;;;5.92;0.90;;;;;;;12.57;85.49;100910.66;1669221;86;21054;-89
2022/05/17 02:50:00;;;;;;;2.30;0.93;;;;;;;12.63;87.83;100914.20;1669230;85;21058;-88
2022/05/17 02:52:26;;;;;;;2.65;1.30;;;;;;;12.68;89.18;100913.68;1669349;86;21677;-89
2022/05/17 02:54:52;;;;;;;3.15;0.80;;;;;;;12.72;88.48;100907.20;1669788;85;20931;-88
2022/05/17 02:57:17;;;;;;;6.42;0.93;;;;;;;12.77;87.37;100910.47;1669179;86;20935;-88
2022/05/17 02:59:43;;;;;;;3.15;1.57;;;;;;;12.84;89.93;100912.36;1642520;86;21023;-89
2022/05/17 03:02:10;;;;;;;3.22;0.93;;;;;;;12.93;89.37;100910.76;1669270;86;21657;-88
2022/05/17 03:04:36;;;;;;;9.13;1.12;;;;;;;13.07;89.50;100912.41;1669098;86;21090;-88
2022/05/17 03:07:02;;;;;;;18.02;1.72;;;;;;;13.24;86.73;100916.23;1642606;86;21377;-89
2022/05/17 03:09:27;;;;;;;8.45;1.05;;;;;;;13.39;85.54;100918.42;1642624;86;21422;-89
2022/05/17 03:11:53;;;;;;;3.98;1.10;;;;;;;13.50;84.46;100912.99;1669291;86;20900;-90
2022/05/17 03:14:21;;;;;;;5.95;1.72;;;;;;;13.81;84.09;100921.37;1669232;85;20983;-89
2022/05/17 03:16:48;;;;;;;3.67;1.30;;;;;;;14.50;80.34;100920.34;1669140;85;22416;-89
2022/05/17 03:19:14;;;;;;;4.30;1.20;;;;;;;15.29;74.89;100915.03;1669074;85;21103;-89
2022/05/17 03:21:40;;;;;;;4.75;1.17;;;;;;;15.57;71.02;100915.63;1669194;86;21023;-90
2022/05/17 03:24:07;;;;;;;5.78;1.10;;;;;;;16.48;68.68;100913.61;1669201;85;20988;-86
2022/05/17 03:26:33;;;;;;;2.52;1.12;;;;;;;16.89;63.53;100909.81;1669322;86;21077;-87
2022/05/17 03:28:59;;;;;;;4.05;1.25;;;;;;;16.69;60.07;100923.12;1669130;86;21677;-86
2022/05/17 03:31:26;;;;;;;4.60;1.62;;;;;;;16.37;58.50;100921.08;1669207;85;21115;-89
2022/05/17 03:33:53;;;;;;;3.70;1.55;;;;;;;16.18;59.14;100918.31;1667863;86;21579;-88
2022/05/17 03:36:19;;;;;;;4.90;1.47;;;;;;;16.32;60.97;100915.16;1659819;86;21063;-88
2022/05/17 03:38:45;;;;;;;8.03;1.35;;;;;;;17.29;61.91;100915.73;1659695;86;21035;-88
2022/05/17 03:41:11;;;;;;;2.33;1.00;;;;;;;18.39;59.14;100914.58;1656850;86;21665;-88
2022/05/17 03:43:37;;;;;;;5.05;1.87;;;;;;;19.41;56.05;100911.50;1659704;86;21036;-88
2022/05/17 03:46:09;;;;;;;3.10;0.82;;;;;;;20.37;54.32;100910.59;1659766;86;21008;-89
2022/05/17 03:48:35;;;;;;;6.97;1.57;;;;;;;20.80;49.06;100909.91;1657358;86;21110;-88
2022/05/17 03:51:03;;;;;;;2.45;1.10;;;;;;;21.15;48.15;100901.67;1659765;86;21188;-88
2022/05/17 03:53:29;;;;;;;4.28;1.10;;;;;;;21.04;47.38;100893.79;1657113;86;21688;-90
2022/05/17 03:55:55;;;;;;;6.12;1.05;;;;;;;21.21;46.67;100896.29;1659668;86;20976;-89
2022/05/17 03:58:21;;;;;;;8.30;1.00;;;;;;;21.12;45.44;100899.03;1659789;86;21067;-89
2022/05/17 04:00:47;;;;;;;9.15;1.27;;;;;;;21.42;45.35;100895.08;1640775;86;21601;-89
2022/05/17 04:03:13;;;;;;;6.60;1.07;;;;;;;21.98;44.95;100898.61;1659844;86;20955;-90
2022/05/17 04:05:39;;;;;;;7.72;1.00;;;;;;;22.95;45.03;100895.58;1659883;86;21908;-88
2022/05/17 04:08:05;;;;;;;2.47;0.90;;;;;;;23.87;42.79;100889.79;1636030;86;20932;-91
2022/05/17 04:10:31;;;;;;;5.30;1.05;;;;;;;24.54;41.33;100892.33;1659991;86;21016;-89
2022/05/17 04:12:57;;;;;;;4.58;1.12;;;;;;;25.10;39.45;100895.15;1659820;86;20897;-87
2022/05/17 04:15:23;;;;;;;8.25;0.98;;;;;;;25.76;39.07;100892.39;1659389;86;21095;-90
2022/05/17 04:17:51;;;;;;;4.80;1.20;;;;;;;26.38;37.67;100890.75;1640754;86;21944;-88
2022/05/17 04:20:18;;;;;;;2.37;0.90;;;;;;;27.06;36.74;100889.49;1659638;86;21007;-93
2022/05/17 04:22:49;;;;;;;9.68;1.05;;;;;;;27.63;35.38;100884.25;1659841;86;21459;-93
2022/05/17 04:25:19;;;;;;;6.50;1.30;;;;;;;28.36;34.61;100882.27;1659736;86;21611;-91
2022/05/17 04:27:46;;;;;;;6.33;1.20;;;;;;;28.97;33.83;100886.67;1659354;86;21043;-91
2022/05/17 04:30:13;;;;;;;4.78;1.00;;;;;;;29.48;31.86;100888.03;1659713;86;21181;-91
2022/05/17 04:32:39;;;;;;;10.45;1.22;;;;;;;29.99;30.49;100893.46;1659795;86;21059;-90
2022/05/17 04:35:07;;;;;;;3.83;0.90;;;;;;;30.38;29.47;100891.56;1659485;86;21035;-92
2022/05/17 04:37:33;;;;;;;10.82;1.10;;;;;;;30.45;29.12;100893.81;1659888;86;21709;-92
2022/05/17 04:39:59;;;;;;;11.63;1.22;;;;;;;30.99;28.28;100894.08;1659839;86;21035;-88
2022/05/17 04:42:25;;;;;;;6.72;1.35;;;;;;;31.68;27.41;100892.47;1659710;86;21875;-92
2022/05/17 04:44:51;;;;;;;4.40;1.17;;;;;;;31.96;26.66;100902.64;1659341;86;21490;-91
2022/05/17 04:47:18;;;;;;;4.20;0.95;;;;;;;31.82;25.97;100897.23;1659829;86;20900;-90
2022/05/17 04:49:43;;;;;;;6.35;0.98;;;;;;;32.03;25.45;100872.78;1659740;86;21004;-89
2022/05/17 04:52:10;;;;;;;4.05;1.20;;;;;;;32.42;24.82;100888.64;1660180;86;21015;-90
2022/05/17 04:54:36;;;;;;;4.45;1.35;;;;;;;32.60;24.90;100882.23;1659467;86;22060;-91
2022/05/17 04:57:02;;;;;;;4.47;1.45;;;;;;;32.83;24.60;100885.33;1659607;86;20936;-90
2022/05/17 04:59:28;;;;;;;7.05;1.55;;;;;;;33.11;24.31;100883.02;1629875;86;21249;-91
2022/05/17 05:01:53;;;;;;;2.87;1.10;;;;;;;33.39;23.96;100880.66;1659692;86;21412;-89
2022/05/17 05:04:19;;;;;;;7.55;1.30;;;;;;;33.61;23.66;100888.30;1636122;86;20866;-92
2022/05/17 05:06:45;;;;;;;6.10;1.30;;;;;;;33.78;22.90;100887.97;1659549;86;20931;-90
2022/05/17 05:09:11;;;;;;;3.42;1.10;;;;;;;34.03;23.20;100887.78;1640633;86;20936;-92
2022/05/17 05:11:38;;;;;;;3.92;1.20;;;;;;;34.10;22.15;100893.30;1659713;86;21464;-92
2022/05/17 05:14:05;;;;;;;5.15;1.27;;;;;;;34.07;21.86;100896.93;1659803;86;21075;-92
2022/05/17 05:16:32;;;;;;;4.08;1.30;;;;;;;33.88;21.84;100891.87;1659652;86;21228;-92
2022/05/17 05:18:58;;;;;;;8.68;1.30;;;;;;;34.10;21.46;100891.11;1659872;86;21095;-90
2022/05/17 05:21:24;;;;;;;4.90;1.20;;;;;;;34.35;20.84;100890.84;1659510;86;21020;-94
2022/05/17 05:23:50;;;;;;;2.72;1.30;;;;;;;34.65;20.84;100890.73;1659713;86;21021;-89
2022/05/17 05:26:16;;;;;;;4.75;1.45;;;;;;;34.86;20.36;100888.27;1659677;86;21013;-92
2022/05/17 05:28:44;;;;;;;2.27;1.42;;;;;;;35.05;20.33;100891.84;1659776;86;20897;-92
2022/05/17 05:31:12;;;;;;;1.40;1.30;;;;;;;35.44;20.09;100885.66;1659606;86;21308;-93
2022/05/17 05:33:39;;;;;;;7.03;1.22;;;;;;;35.44;19.91;100879.26;1659707;86;21474;-89
2022/05/17 05:36:06;;;;;;;1.20;1.10;;;;;;;35.18;19.27;100884.47;1661867;86;21047;-92
2022/05/17 05:38:32;;;;;;;9.38;1.30;;;;;;;34.99;19.33;100888.69;1667497;86;21075;-95
2022/05/17 05:40:58;;;;;;;3.92;1.32;;;;;;;35.51;19.57;100885.38;1667427;86;21147;-92
2022/05/17 05:43:25;;;;;;;2.05;1.25;;;;;;;35.51;19.57;100885.38;1667973;86;21256;-93
2022/05/17 05:45:52;;;;;;;8.65;1.60;;;;;;;35.85;19.51;100878.22;1667332;86;21614;-92
2022/05/17 05:48:18;;;;;;;9.78;1.72;;;;;;;36.26;18.26;100886.31;1667438;86;21556;-92
2022/05/17 05:50:47;;;;;;;8.83;1.80;;;;;;;36.26;18.29;100889.73;1642489;86;21086;-91
2022/05/17 05:53:14;;;;;;;5.75;1.90;;;;;;;36.51;18.39;100888.64;1667084;85;21070;-89
2022/05/17 05:55:41;;;;;;;2.45;1.50;;;;;;;36.54;18.00;100889.83;1667398;86;21865;-94
2022/05/17 05:58:08;;;;;;;1.40;1.30;;;;;;;36.47;17.82;100882.91;1667115;86;21016;-93
2022/05/17 06:00:35;;;;;;;5.92;1.30;;;;;;;36.34;17.80;100879.96;1667196;86;21027;-91
2022/05/17 06:03:02;;;;;;;3.72;1.30;;;;;;;36.45;17.81;100878.36;1667516;86;21063;-89
2022/05/17 06:05:30;;;;;;;3.17;1.50;;;;;;;35.99;17.53;100880.77;1667511;86;21019;-90
2022/05/17 06:07:56;;;;;;;8.83;1.37;;;;;;;35.86;17.80;100885.43;1666769;86;21128;-88
2022/05/17 06:10:24;;;;;;;3.90;1.47;;;;;;;36.02;17.73;100886.93;1667703;86;21050;-92
2022/05/17 06:12:50;;;;;;;4.28;1.30;;;;;;;36.20;17.39;100879.61;1667367;86;21023;-88
2022/05/17 06:15:17;;;;;;;3.10;1.50;;;;;;;36.38;17.62;100884.87;1667484;86;21019;-86
2022/05/17 06:17:44;;;;;;;2.72;1.30;;;;;;;36.34;16.99;100880.75;1667554;86;21024;-87
2022/05/17 06:20:11;;;;;;;1.40;1.25;;;;;;;36.13;16.93;100887.56;1667589;86;21131;-85
2022/05/17 06:22:38;;;;;;;2.47;1.40;;;;;;;36.03;17.09;100882.89;1666927;86;21039;-87
2022/05/17 06:25:07;;;;;;;8.20;1.40;;;;;;;35.99;17.36;100879.98;1667602;86;20998;-86
2022/05/17 06:27:33;;;;;;;12.00;1.40;;;;;;;36.35;17.22;100873.11;1667464;86;21073;-88
2022/05/17 06:29:59;;;;;;;12.90;1.90;;;;;;;36.91;17.08;100872.38;1667694;86;21090;-85
2022/05/17 06:32:26;;;;;;;2.55;1.27;;;;;;;37.24;16.54;100870.45;1667788;86;21527;-87
2022/05/17 06:34:52;;;;;;;2.37;1.60;;;;;;;37.16;16.69;100871.25;1666407;86;20987;-94
2022/05/17 06:37:18;;;;;;;1.40;1.30;;;;;;;37.37;16.35;100865.73;1640841;86;21528;-86
2022/05/17 06:39:45;;;;;;;1.75;1.40;;;;;;;37.44;16.10;100866.95;1659905;86;20984;-86
2022/05/17 06:42:12;;;;;;;1.60;1.50;;;;;;;37.50;16.22;100868.65;1659816;86;21043;-88
2022/05/17 06:44:39;;;;;;;2.80;1.40;;;;;;;37.71;16.14;100866.72;1659957;86;21912;-88
2022/05/17 06:47:07;;;;;;;7.80;1.75;;;;;;;37.56;15.85;100866.10;1659813;86;21035;-85
2022/05/17 06:49:39;;;;;;;2.67;1.50;;;;;;;37.58;16.23;100867.25;1659677;86;21055;-86
2022/05/17 06:52:08;;;;;;;4.37;1.70;;;;;;;37.57;15.96;100860.67;1660082;86;21028;-88
2022/05/17 06:54:37;;;;;;;7.85;1.47;;;;;;;37.59;16.17;100864.59;1659684;86;21513;-85
2022/05/17 06:57:08;;;;;;;1.40;1.30;;;;;;;37.58;15.60;100859.43;1659920;86;21128;-85
2022/05/17 06:59:36;;;;;;;6.62;1.45;;;;;;;37.80;16.07;100858.25;1659938;86;21095;-86
2022/05/17 07:02:04;;;;;;;4.62;1.82;;;;;;;37.55;15.68;100856.09;1660090;86;21036;-87
2022/05/17 07:04:32;;;;;;;4.22;1.55;;;;;;;37.06;15.84;100861.02;1660083;86;21043;-88
2022/05/17 07:06:59;;;;;;;1.92;1.40;;;;;;;37.03;15.83;100871.14;1659946;86;21059;-85
2022/05/17 07:09:28;;;;;;;1.62;1.30;;;;;;;37.36;16.18;100860.53;1640866;86;21607;-87
2022/05/17 07:14:40;;;;;;;2.37;1.60;;;;;;;37.97;15.25;100862.65;1659539;86;21107;-85
2022/05/17 07:17:16;;;;;;;9.00;1.45;;;;;;;37.46;15.47;100858.88;1659985;86;21052;-86
2022/05/17 07:19:43;;;;;;;4.05;3.72;;;;;;;37.26;15.42;100855.34;1658075;86;21076;-86
2022/05/17 07:22:10;;;;;;;5.10;1.50;;;;;;;37.17;16.10;100850.33;1659858;86;21170;-87
2022/05/17 07:24:36;;;;;;;2.08;1.22;;;;;;;37.55;15.72;100842.03;1659794;86;21429;-87
2022/05/17 07:27:05;;;;;;;2.02;1.10;;;;;;;37.58;15.61;100836.30;1659984;86;21047;-86
2022/05/17 07:29:33;;;;;;;2.75;1.25;;;;;;;37.77;16.01;100837.44;1659956;86;21671;-85
2022/05/17 07:32:00;;;;;;;2.12;1.12;;;;;;;38.05;15.82;100842.15;1659579;86;21071;-84
2022/05/17 07:34:27;;;;;;;4.35;1.40;;;;;;;37.90;15.57;100841.09;1659950;86;21169;-86
2022/05/17 07:36:54;;;;;;;1.98;1.30;;;;;;;37.93;15.72;100845.86;1665459;86;21051;-85
2022/05/17 07:39:21;;;;;;;4.25;1.00;;;;;;;38.21;15.22;100839.30;1667679;86;21064;-87
2022/05/17 07:41:48;;;;;;;5.65;1.12;;;;;;;38.57;15.63;100842.52;1667363;86;21211;-86
2022/05/17 07:44:19;;;;;;;1.60;1.47;;;;;;;38.65;14.90;100848.70;1667636;86;21027;-91
2022/05/17 07:46:46;;;;;;;3.35;1.25;;;;;;;38.41;14.79;100847.59;1663653;86;21141;-89
2022/05/17 07:49:12;;;;;;;4.92;0.90;;;;;;;38.30;15.20;100843.66;1667527;86;21075;-87
2022/05/17 07:51:38;;;;;;;2.25;1.00;;;;;;;38.35;15.00;100832.45;1667563;86;21524;-91
2022/05/17 07:54:04;;;;;;;3.50;1.30;;;;;;;36.68;15.05;100842.38;1667491;86;21619;-87
2022/05/17 07:56:30;;;;;;;2.58;1.40;;;;;;;35.08;16.04;100844.77;1667657;86;21134;-90
2022/05/17 07:58:56;;;;;;;3.37;1.65;;;;;;;35.36;16.38;100834.36;1667687;86;21948;-90
2022/05/17 08:01:22;;;;;;;2.37;1.50;;;;;;;35.79;16.15;100840.66;1667633;86;20987;-89
2022/05/17 08:03:48;;;;;;;6.47;1.00;;;;;;;35.67;16.31;100834.44;1667555;86;20917;-86
2022/05/17 08:06:15;;;;;;;2.20;0.80;;;;;;;35.51;16.17;100837.11;1642727;86;21027;-87
2022/05/17 08:08:41;;;;;;;0.93;0.70;;;;;;;35.30;16.21;100827.04;1667490;86;21520;-90
2022/05/17 08:11:07;;;;;;;2.58;0.98;;;;;;;34.16;16.67;100841.89;1667604;86;21082;-92
2022/05/17 08:13:33;;;;;;;4.20;1.30;;;;;;;34.47;17.03;100839.12;1667561;86;21027;-91
2022/05/17 08:15:59;;;;;;;11.60;1.10;;;;;;;34.86;16.55;100840.06;1667728;86;21055;-91
2022/05/17 08:18:25;;;;;;;2.02;0.98;;;;;;;35.24;16.20;100842.14;1642487;86;20924;-91
2022/05/17 08:20:51;;;;;;;0.90;0.82;;;;;;;35.57;16.23;100831.23;1667612;86;20994;-92
2022/05/17 08:23:17;;;;;;;3.65;1.05;;;;;;;36.00;16.60;100830.44;1667416;86;21826;-88
2022/05/17 08:28:28;;;;;;;1.47;0.93;;;;;;;36.72;16.12;100817.21;1667284;86;21531;-90
2022/05/17 08:30:54;;;;;;;3.00;1.20;;;;;;;36.81;15.76;100818.02;1667565;86;21050;-93
2022/05/17 08:33:23;;;;;;;3.67;1.15;;;;;;;36.59;15.77;100812.89;1667623;86;20932;-90
2022/05/17 08:36:03;;;;;;;4.42;0.90;;;;;;;36.89;16.21;100809.62;1665243;86;21075;-85
2022/05/17 08:38:39;;;;;;;4.33;1.00;;;;;;;37.47;16.06;100798.60;1659966;86;21063;-89
2022/05/17 08:41:33;;;;;;;3.15;0.62;;;;;;;37.20;15.83;100805.09;1659772;86;21522;-91
2022/05/17 08:44:04;;;;;;;1.72;0.90;;;;;;;36.28;15.43;100803.09;1659504;86;21055;-91
2022/05/17 08:47:11;;;;;;;6.00;0.80;;;;;;;35.31;16.15;100800.59;1659566;86;21074;-89
2022/05/17 08:49:59;;;;;;;3.05;0.90;;;;;;;34.69;16.38;100793.50;1578444;90;21087;-93
2022/05/17 08:52:28;;;;;;;2.27;0.80;;;;;;;33.40;16.58;100800.41;1579112;90;21113;-90
2022/05/17 08:55:18;;;;;;;1.85;0.60;;;;;;;32.18;17.58;100788.48;1558826;90;21161;-91
2022/05/17 08:57:59;;;;;;;0.82;0.70;;;;;;;32.05;18.23;100787.31;1556292;91;21098;-86
2022/05/17 09:00:33;;;;;;;1.67;0.70;;;;;;;31.64;18.33;100798.90;1539307;92;21100;-89
2022/05/17 09:03:16;;;;;;;4.92;0.78;;;;;;;31.00;18.83;100787.09;1512968;94;21206;-88
2022/05/17 09:06:06;;;;;;;1.82;0.60;;;;;;;30.53;19.18;100795.30;1510173;94;21508;-89
2022/05/17 09:08:58;;;;;;;1.85;0.75;;;;;;;30.09;19.61;100792.08;1490313;96;21649;-86
2022/05/17 09:11:59;;;;;;;5.92;0.70;;;;;;;29.87;20.07;100788.36;1490717;96;21190;-89
2022/05/17 09:14:32;;;;;;;5.62;2.02;;;;;;;29.66;20.50;100788.22;1490647;96;21146;-84
2022/05/17 09:17:06;;;;;;;3.62;0.62;;;;;;;29.19;20.43;100792.55;1490906;96;21314;-85
2022/05/17 09:19:33;;;;;;;2.67;0.50;;;;;;;29.19;20.08;100791.16;1490619;96;21102;-84
2022/05/17 09:22:00;;;;;;;3.20;0.78;;;;;;;28.74;20.35;100793.06;1490858;96;21684;-84
2022/05/17 09:24:31;;;;;;;1.15;0.55;;;;;;;28.24;20.53;100795.18;1490572;96;21518;-86
2022/05/17 09:27:26;;;;;;;1.70;0.62;;;;;;;28.16;21.48;100792.89;1467724;97;21157;-84
2022/05/17 09:30:13;;;;;;;2.77;0.57;;;;;;;28.01;21.12;100795.25;1467788;97;21108;-88
2022/05/17 09:32:44;;;;;;;2.37;0.60;;;;;;;27.33;21.62;100801.86;1466858;97;21005;-85
2022/05/17 09:35:18;;;;;;;1.82;0.40;;;;;;;26.65;21.87;100807.48;1440353;98;21633;-83
2022/05/17 09:37:48;;;;;;;1.90;0.72;;;;;;;26.57;22.60;100787.75;1450127;98;21128;-86
2022/05/17 09:40:22;;;;;;;6.67;0.60;;;;;;;27.37;22.84;100786.70;1458835;97;21668;-87
2022/05/17 09:43:06;;;;;;;3.58;0.70;;;;;;;28.37;22.61;100788.21;1467693;97;21846;-86
2022/05/17 09:46:02;;;;;;;5.75;0.80;;;;;;;29.17;21.55;100780.43;1479600;93;21140;-86
2022/05/17 09:54:29;;;;;;;4.12;0.70;;;;;;;28.44;22.35;100774.48;1513515;93;21136;-85
2022/05/17 09:57:22;;;;;;;8.25;0.60;;;;;;;28.87;21.83;100776.94;1498053;94;21305;-86
2022/05/17 09:59:55;;;;;;;1.30;0.57;;;;;;;29.03;21.69;100773.95;1470512;97;21107;-84
2022/05/17 10:02:33;;;;;;;2.08;0.50;;;;;;;29.46;21.53;100770.17;1470429;97;21123;-88
2022/05/17 10:05:23;;;;;;;3.50;0.75;;;;;;;29.90;22.19;100762.37;1467915;97;21196;-89
2022/05/17 10:08:03;;;;;;;3.42;0.60;;;;;;;30.54;22.04;100755.76;1470284;96;21092;-87
2022/05/17 10:10:39;;;;;;;2.40;0.55;;;;;;;30.53;21.41;100748.02;1470595;97;21913;-87
2022/05/17 10:13:19;;;;;;;1.85;0.90;;;;;;;30.05;21.21;100750.15;1470344;96;21049;-89
2022/05/17 10:15:49;;;;;;;4.83;0.60;;;;;;;29.69;21.50;100746.38;1469029;97;21128;-89
2022/05/17 10:18:54;;;;;;;6.53;0.60;;;;;;;29.01;21.32;100757.66;1470283;97;21631;-88
2022/05/17 10:21:59;;;;;;;4.92;0.80;;;;;;;28.69;21.81;100759.51;1470177;97;21096;-86
2022/05/17 10:24:48;;;;;;;4.67;0.53;;;;;;;28.63;21.46;100743.00;1417892;101;21154;-88
2022/05/17 10:27:34;;;;;;;3.22;0.95;;;;;;;28.03;22.18;100737.47;1418744;101;21224;-86
2022/05/17 10:30:11;;;;;;;2.27;0.70;;;;;;;28.21;22.87;100741.30;1418756;101;21229;-87
2022/05/17 10:32:50;;;;;;;1.42;0.47;;;;;;;28.42;22.43;100738.61;1417054;101;21181;-87
2022/05/17 10:35:36;;;;;;;1.72;0.95;;;;;;;28.39;21.95;100735.97;1436896;99;21223;-86
2022/05/17 10:38:17;;;;;;;1.30;0.75;;;;;;;28.21;22.08;100741.30;1438618;98;22260;-86
2022/05/17 10:40:47;;;;;;;4.30;0.70;;;;;;;28.19;21.92;100743.63;1438957;99;21610;-90
2022/05/17 10:43:24;;;;;;;0.75;0.50;;;;;;;28.89;21.71;100733.77;1438801;99;21116;-88
2022/05/17 10:46:08;;;;;;;5.95;1.00;;;;;;;28.90;21.34;100728.41;1437089;99;21096;-89
2022/05/17 10:48:42;;;;;;;1.52;0.82;;;;;;;28.23;21.71;100725.66;1425837;99;21102;-88
2022/05/17 10:51:43;;;;;;;1.15;0.62;;;;;;;27.71;22.05;100730.06;1422788;100;21292;-85
2022/05/17 10:54:30;;;;;;;2.42;0.80;;;;;;;27.55;22.33;100726.08;1442535;96;21016;-87
2022/05/17 10:57:18;;;;;;;3.67;0.75;;;;;;;27.15;22.65;100712.21;1492076;95;21111;-87
2022/05/17 11:00:14;;;;;;;5.55;0.80;;;;;;;26.89;23.02;100721.21;1488713;96;21144;-85
2022/05/17 11:03:01;;;;;;;7.90;1.30;;;;;;;27.15;23.22;100713.00;1488907;96;21060;-86
2022/05/17 11:05:42;;;;;;;3.02;0.57;;;;;;;27.74;22.98;100704.41;1574708;90;21365;-86
2022/05/17 11:08:36;;;;;;;6.17;0.80;;;;;;;28.06;22.30;100706.23;1580530;90;21052;-86
2022/05/17 11:11:25;;;;;;;6.90;0.80;;;;;;;28.17;22.23;100701.63;1580725;90;21063;-89
2022/05/17 11:14:03;;;;;;;3.02;0.80;;;;;;;28.57;21.58;100697.97;1583781;90;21071;-87
2022/05/17 11:16:37;;;;;;;2.55;0.60;;;;;;;28.38;21.63;100698.31;1585703;90;21153;-85
2022/05/17 11:19:20;;;;;;;3.17;0.80;;;;;;;28.12;21.21;100691.47;1585583;90;21114;-87
2022/05/17 11:21:54;;;;;;;3.80;0.70;;;;;;;27.75;21.51;100697.70;1539280;93;21581;-86
2022/05/17 11:24:50;;;;;;;1.20;0.72;;;;;;;27.35;21.51;100694.33;1510341;95;21532;-84
2022/05/17 11:27:56;;;;;;;8.83;0.65;;;;;;;26.98;21.34;100687.78;1510341;95;21623;-85
2022/05/17 11:30:29;;;;;;;4.60;0.75;;;;;;;26.51;21.88;100693.84;1510215;95;21160;-84
2022/05/17 11:33:26;;;;;;;2.47;0.50;;;;;;;26.34;21.89;100687.36;1507456;95;21362;-86
2022/05/17 11:36:03;;;;;;;2.10;0.80;;;;;;;26.12;21.83;100696.60;1555919;92;20987;-84
2022/05/17 11:38:46;;;;;;;1.05;0.65;;;;;;;26.57;22.43;100688.23;1550225;91;21059;-84
2022/05/17 11:41:22;;;;;;;;;;;;;;;27.29;22.67;100678.41;1552759;91;21131;-84
2022/05/17 11:44:07;;;;;;;4.85;0.95;;;;;;;27.53;21.73;100679.95;1510002;94;20174;-85
2022/05/17 11:46:51;;;;;;;4.20;0.90;;;;;;;26.98;21.61;100680.86;1508996;95;21146;-87
2022/05/17 11:49:28;;;;;;;2.37;0.68;;;;;;;26.16;22.04;100679.51;1512374;93;20993;-86
2022/05/17 11:52:03;;;;;;;3.12;0.93;;;;;;;25.65;22.61;100685.66;1522642;94;21202;-86
2022/05/17 11:54:45;;;;;;;6.37;1.12;;;;;;;25.68;23.17;100673.34;1524341;94;21163;-86
2022/05/17 11:57:19;;;;;;;2.17;0.88;;;;;;;26.01;23.08;100671.51;1500765;95;21052;-85
2022/05/17 12:00:04;;;;;;;1.80;0.70;;;;;;;26.06;22.92;100669.05;1530186;93;22075;-86
2022/05/17 12:02:48;;;;;;;0.70;0.55;;;;;;;26.22;22.94;100662.85;1517721;94;21129;-87